sensor_id;sensor_type;location;lat;lon;timestamp;P1;durP1;ratioP1;P2;durP2;ratioP2
56752;SDS011;42627;42.646;23.642;2024-03-02T00:01:26;26.98;;;10.80;;
56752;SDS011;42627;42.646;23.642;2024-03-02T00:03:27;32.63;;;11.10;;
56752;SDS011;42627;42.646;23.642;2024-03-02T00:05:28;27.50;;;11.32;;
56752;SDS011;42627;42.646;23.642;2024-03-02T00:07:29;28.13;;;10.57;;
56752;SDS011;42627;42.646;23.642;2024-03-02T00:09:32;28.95;;;12.35;;
56752;SDS011;42627;42.646;23.642;2024-03-02T00:11:35;27.63;;;12.32;;
56752;SDS011;42627;42.646;23.642;2024-03-02T00:13:36;28.98;;;10.82;;
56752;SDS011;42627;42.646;23.642;2024-03-02T00:15:54;28.13;;;10.60;;
56752;SDS011;42627;42.646;23.642;2024-03-02T00:17:56;25.48;;;10.98;;
56752;SDS011;42627;42.646;23.642;2024-03-02T00:19:57;30.27;;;11.70;;
56752;SDS011;42627;42.646;23.642;2024-03-02T00:22:00;29.38;;;11.75;;
56752;SDS011;42627;42.646;23.642;2024-03-02T00:24:01;27.45;;;12.73;;
56752;SDS011;42627;42.646;23.642;2024-03-02T00:26:06;24.73;;;11.35;;
56752;SDS011;42627;42.646;23.642;2024-03-02T00:28:14;24.52;;;11.35;;
56752;SDS011;42627;42.646;23.642;2024-03-02T00:32:37;32.95;;;10.82;;
56752;SDS011;42627;42.646;23.642;2024-03-02T00:34:38;27.50;;;12.63;;
56752;SDS011;42627;42.646;23.642;2024-03-02T00:36:40;28.35;;;11.75;;
56752;SDS011;42627;42.646;23.642;2024-03-02T00:38:52;30.27;;;12.23;;
56752;SDS011;42627;42.646;23.642;2024-03-02T00:40:54;25.63;;;11.73;;
56752;SDS011;42627;42.646;23.642;2024-03-02T00:42:56;29.88;;;11.90;;
56752;SDS011;42627;42.646;23.642;2024-03-02T00:44:57;30.63;;;12.77;;
56752;SDS011;42627;42.646;23.642;2024-03-02T00:46:58;29.83;;;11.80;;
56752;SDS011;42627;42.646;23.642;2024-03-02T00:49:00;30.77;;;12.40;;
56752;SDS011;42627;42.646;23.642;2024-03-02T00:51:02;31.35;;;12.32;;
56752;SDS011;42627;42.646;23.642;2024-03-02T00:53:09;26.65;;;12.50;;
56752;SDS011;42627;42.646;23.642;2024-03-02T00:55:11;24.20;;;11.32;;
56752;SDS011;42627;42.646;23.642;2024-03-02T00:57:13;29.73;;;12.95;;
56752;SDS011;42627;42.646;23.642;2024-03-02T00:59:14;30.83;;;11.23;;
56752;SDS011;42627;42.646;23.642;2024-03-02T01:01:15;28.65;;;13.05;;
56752;SDS011;42627;42.646;23.642;2024-03-02T01:03:17;23.90;;;11.30;;
56752;SDS011;42627;42.646;23.642;2024-03-02T01:05:19;29.33;;;12.13;;
56752;SDS011;42627;42.646;23.642;2024-03-02T01:07:21;27.25;;;11.80;;
56752;SDS011;42627;42.646;23.642;2024-03-02T01:09:24;27.10;;;11.18;;
56752;SDS011;42627;42.646;23.642;2024-03-02T01:11:25;33.67;;;13.65;;
56752;SDS011;42627;42.646;23.642;2024-03-02T01:13:26;29.20;;;14.23;;
56752;SDS011;42627;42.646;23.642;2024-03-02T01:15:27;36.75;;;14.75;;
56752;SDS011;42627;42.646;23.642;2024-03-02T01:17:28;34.85;;;13.60;;
56752;SDS011;42627;42.646;23.642;2024-03-02T01:19:30;33.58;;;12.68;;
56752;SDS011;42627;42.646;23.642;2024-03-02T01:21:31;26.60;;;11.20;;
56752;SDS011;42627;42.646;23.642;2024-03-02T01:23:32;26.23;;;11.18;;
56752;SDS011;42627;42.646;23.642;2024-03-02T01:25:33;27.10;;;10.18;;
56752;SDS011;42627;42.646;23.642;2024-03-02T01:27:34;29.88;;;12.65;;
56752;SDS011;42627;42.646;23.642;2024-03-02T01:29:35;29.08;;;11.98;;
56752;SDS011;42627;42.646;23.642;2024-03-02T01:31:36;31.27;;;12.18;;
56752;SDS011;42627;42.646;23.642;2024-03-02T01:33:37;30.65;;;12.10;;
56752;SDS011;42627;42.646;23.642;2024-03-02T01:35:41;23.20;;;10.75;;
56752;SDS011;42627;42.646;23.642;2024-03-02T01:37:53;29.92;;;12.13;;
56752;SDS011;42627;42.646;23.642;2024-03-02T01:39:57;31.73;;;11.90;;
56752;SDS011;42627;42.646;23.642;2024-03-02T01:41:58;27.67;;;13.05;;
56752;SDS011;42627;42.646;23.642;2024-03-02T01:43:59;29.73;;;11.80;;
56752;SDS011;42627;42.646;23.642;2024-03-02T01:46:00;25.42;;;12.38;;
56752;SDS011;42627;42.646;23.642;2024-03-02T01:48:01;24.90;;;11.32;;
56752;SDS011;42627;42.646;23.642;2024-03-02T01:50:02;26.95;;;11.57;;
56752;SDS011;42627;42.646;23.642;2024-03-02T01:52:04;25.92;;;11.32;;
56752;SDS011;42627;42.646;23.642;2024-03-02T01:54:05;27.20;;;11.82;;
56752;SDS011;42627;42.646;23.642;2024-03-02T01:56:06;27.35;;;12.65;;
56752;SDS011;42627;42.646;23.642;2024-03-02T01:58:07;30.55;;;12.80;;
56752;SDS011;42627;42.646;23.642;2024-03-02T02:00:08;29.70;;;11.73;;
56752;SDS011;42627;42.646;23.642;2024-03-02T02:02:09;32.35;;;11.65;;
56752;SDS011;42627;42.646;23.642;2024-03-02T02:04:10;33.88;;;13.20;;
56752;SDS011;42627;42.646;23.642;2024-03-02T02:06:13;31.48;;;11.55;;
56752;SDS011;42627;42.646;23.642;2024-03-02T02:08:17;26.80;;;12.35;;
56752;SDS011;42627;42.646;23.642;2024-03-02T02:10:20;23.98;;;11.30;;
56752;SDS011;42627;42.646;23.642;2024-03-02T02:12:21;29.25;;;11.57;;
56752;SDS011;42627;42.646;23.642;2024-03-02T02:14:22;26.08;;;11.27;;
56752;SDS011;42627;42.646;23.642;2024-03-02T02:16:23;25.73;;;11.60;;
56752;SDS011;42627;42.646;23.642;2024-03-02T02:18:24;33.30;;;12.23;;
56752;SDS011;42627;42.646;23.642;2024-03-02T02:20:25;33.33;;;12.90;;
56752;SDS011;42627;42.646;23.642;2024-03-02T02:22:26;27.65;;;11.63;;
56752;SDS011;42627;42.646;23.642;2024-03-02T02:24:28;35.92;;;11.90;;
56752;SDS011;42627;42.646;23.642;2024-03-02T02:26:29;29.25;;;11.70;;
56752;SDS011;42627;42.646;23.642;2024-03-02T02:28:30;37.55;;;11.75;;
56752;SDS011;42627;42.646;23.642;2024-03-02T02:30:32;26.65;;;12.13;;
56752;SDS011;42627;42.646;23.642;2024-03-02T02:32:33;26.65;;;11.15;;
56752;SDS011;42627;42.646;23.642;2024-03-02T02:34:34;30.45;;;12.20;;
56752;SDS011;42627;42.646;23.642;2024-03-02T02:36:36;24.77;;;11.23;;
56752;SDS011;42627;42.646;23.642;2024-03-02T02:38:39;28.70;;;12.02;;
56752;SDS011;42627;42.646;23.642;2024-03-02T02:40:41;29.00;;;11.63;;
56752;SDS011;42627;42.646;23.642;2024-03-02T02:42:42;29.90;;;11.32;;
56752;SDS011;42627;42.646;23.642;2024-03-02T02:44:43;25.48;;;10.70;;
56752;SDS011;42627;42.646;23.642;2024-03-02T02:46:44;28.25;;;11.13;;
56752;SDS011;42627;42.646;23.642;2024-03-02T02:48:45;32.58;;;13.02;;
56752;SDS011;42627;42.646;23.642;2024-03-02T02:50:46;31.05;;;12.85;;
56752;SDS011;42627;42.646;23.642;2024-03-02T02:52:47;34.15;;;12.23;;
56752;SDS011;42627;42.646;23.642;2024-03-02T02:54:54;32.58;;;13.43;;
56752;SDS011;42627;42.646;23.642;2024-03-02T02:56:56;31.35;;;12.77;;
56752;SDS011;42627;42.646;23.642;2024-03-02T02:58:57;32.47;;;13.18;;
56752;SDS011;42627;42.646;23.642;2024-03-02T03:00:58;35.65;;;13.68;;
56752;SDS011;42627;42.646;23.642;2024-03-02T03:03:00;30.92;;;12.63;;
56752;SDS011;42627;42.646;23.642;2024-03-02T03:05:01;33.33;;;12.45;;
56752;SDS011;42627;42.646;23.642;2024-03-02T03:07:02;34.70;;;13.60;;
56752;SDS011;42627;42.646;23.642;2024-03-02T03:09:03;30.83;;;12.63;;
56752;SDS011;42627;42.646;23.642;2024-03-02T03:11:05;29.52;;;12.73;;
56752;SDS011;42627;42.646;23.642;2024-03-02T03:13:06;35.67;;;13.52;;
56752;SDS011;42627;42.646;23.642;2024-03-02T03:15:08;32.92;;;11.75;;
56752;SDS011;42627;42.646;23.642;2024-03-02T03:17:10;34.92;;;12.25;;
56752;SDS011;42627;42.646;23.642;2024-03-02T03:19:17;37.10;;;13.13;;
56752;SDS011;42627;42.646;23.642;2024-03-02T03:21:18;27.70;;;11.75;;
56752;SDS011;42627;42.646;23.642;2024-03-02T03:23:19;29.33;;;11.07;;
56752;SDS011;42627;42.646;23.642;2024-03-02T03:47:01;32.63;;;12.70;;
56752;SDS011;42627;42.646;23.642;2024-03-02T03:49:03;35.70;;;12.35;;
56752;SDS011;42627;42.646;23.642;2024-03-02T03:51:05;29.35;;;12.52;;
56752;SDS011;42627;42.646;23.642;2024-03-02T03:53:06;29.65;;;12.75;;
56752;SDS011;42627;42.646;23.642;2024-03-02T03:55:07;29.90;;;12.13;;
56752;SDS011;42627;42.646;23.642;2024-03-02T03:57:08;27.17;;;12.32;;
56752;SDS011;42627;42.646;23.642;2024-03-02T03:59:09;31.63;;;12.57;;
56752;SDS011;42627;42.646;23.642;2024-03-02T04:01:10;33.22;;;12.73;;
56752;SDS011;42627;42.646;23.642;2024-03-02T04:03:11;30.05;;;12.38;;
56752;SDS011;42627;42.646;23.642;2024-03-02T04:05:13;30.10;;;13.15;;
56752;SDS011;42627;42.646;23.642;2024-03-02T04:07:14;32.42;;;11.88;;
56752;SDS011;42627;42.646;23.642;2024-03-02T04:09:15;32.47;;;12.05;;
56752;SDS011;42627;42.646;23.642;2024-03-02T04:11:16;35.15;;;13.95;;
56752;SDS011;42627;42.646;23.642;2024-03-02T04:13:17;36.47;;;13.52;;
56752;SDS011;42627;42.646;23.642;2024-03-02T04:15:18;28.98;;;12.15;;
56752;SDS011;42627;42.646;23.642;2024-03-02T04:17:19;34.80;;;14.27;;
56752;SDS011;42627;42.646;23.642;2024-03-02T04:19:20;32.45;;;12.90;;
56752;SDS011;42627;42.646;23.642;2024-03-02T04:21:22;36.88;;;12.55;;
56752;SDS011;42627;42.646;23.642;2024-03-02T04:23:22;28.50;;;12.20;;
56752;SDS011;42627;42.646;23.642;2024-03-02T04:25:23;36.38;;;12.98;;
56752;SDS011;42627;42.646;23.642;2024-03-02T04:27:24;33.88;;;13.40;;
56752;SDS011;42627;42.646;23.642;2024-03-02T04:29:26;31.02;;;11.95;;
56752;SDS011;42627;42.646;23.642;2024-03-02T04:31:30;31.35;;;12.52;;
56752;SDS011;42627;42.646;23.642;2024-03-02T04:33:31;34.40;;;12.05;;
56752;SDS011;42627;42.646;23.642;2024-03-02T04:35:32;30.63;;;12.57;;
56752;SDS011;42627;42.646;23.642;2024-03-02T04:37:34;33.55;;;12.70;;
56752;SDS011;42627;42.646;23.642;2024-03-02T04:39:35;30.73;;;12.55;;
56752;SDS011;42627;42.646;23.642;2024-03-02T04:41:37;32.50;;;12.50;;
56752;SDS011;42627;42.646;23.642;2024-03-02T04:43:38;34.50;;;13.68;;
56752;SDS011;42627;42.646;23.642;2024-03-02T04:45:49;31.42;;;13.52;;
56752;SDS011;42627;42.646;23.642;2024-03-02T04:47:50;35.15;;;14.80;;
56752;SDS011;42627;42.646;23.642;2024-03-02T04:49:51;39.30;;;13.52;;
56752;SDS011;42627;42.646;23.642;2024-03-02T04:51:52;41.58;;;15.73;;
56752;SDS011;42627;42.646;23.642;2024-03-02T04:53:53;39.90;;;14.75;;
56752;SDS011;42627;42.646;23.642;2024-03-02T04:56:03;36.70;;;14.95;;
56752;SDS011;42627;42.646;23.642;2024-03-02T04:58:42;33.95;;;13.70;;
56752;SDS011;42627;42.646;23.642;2024-03-02T05:00:51;46.75;;;18.95;;
56752;SDS011;42627;42.646;23.642;2024-03-02T05:02:52;43.25;;;18.38;;
56752;SDS011;42627;42.646;23.642;2024-03-02T05:04:53;90.07;;;33.55;;
56752;SDS011;42627;42.646;23.642;2024-03-02T05:06:54;105.47;;;39.25;;
56752;SDS011;42627;42.646;23.642;2024-03-02T05:08:57;63.53;;;24.85;;
56752;SDS011;42627;42.646;23.642;2024-03-02T05:10:58;58.13;;;21.88;;
56752;SDS011;42627;42.646;23.642;2024-03-02T05:13:19;45.17;;;17.98;;
56752;SDS011;42627;42.646;23.642;2024-03-02T05:15:29;32.75;;;12.95;;
56752;SDS011;42627;42.646;23.642;2024-03-02T05:17:31;42.03;;;14.90;;
56752;SDS011;42627;42.646;23.642;2024-03-02T05:19:32;30.35;;;13.50;;
56752;SDS011;42627;42.646;23.642;2024-03-02T05:21:34;44.33;;;15.02;;
56752;SDS011;42627;42.646;23.642;2024-03-02T05:23:35;47.20;;;20.08;;
56752;SDS011;42627;42.646;23.642;2024-03-02T05:25:45;43.90;;;18.20;;
56752;SDS011;42627;42.646;23.642;2024-03-02T05:27:55;40.63;;;17.67;;
56752;SDS011;42627;42.646;23.642;2024-03-02T05:29:59;38.30;;;16.73;;
56752;SDS011;42627;42.646;23.642;2024-03-02T05:32:06;46.10;;;17.60;;
56752;SDS011;42627;42.646;23.642;2024-03-02T05:34:07;37.40;;;17.35;;
56752;SDS011;42627;42.646;23.642;2024-03-02T05:36:08;53.25;;;23.67;;
56752;SDS011;42627;42.646;23.642;2024-03-02T05:38:09;49.20;;;18.92;;
56752;SDS011;42627;42.646;23.642;2024-03-02T05:40:10;50.55;;;21.33;;
56752;SDS011;42627;42.646;23.642;2024-03-02T05:42:13;40.40;;;19.05;;
56752;SDS011;42627;42.646;23.642;2024-03-02T05:44:30;27.65;;;13.02;;
56752;SDS011;42627;42.646;23.642;2024-03-02T05:46:31;39.97;;;16.02;;
56752;SDS011;42627;42.646;23.642;2024-03-02T05:48:32;40.83;;;18.05;;
56752;SDS011;42627;42.646;23.642;2024-03-02T05:50:33;35.40;;;14.27;;
56752;SDS011;42627;42.646;23.642;2024-03-02T05:52:34;36.42;;;14.30;;
56752;SDS011;42627;42.646;23.642;2024-03-02T05:54:44;45.92;;;17.13;;
56752;SDS011;42627;42.646;23.642;2024-03-02T05:56:54;33.83;;;15.93;;
56752;SDS011;42627;42.646;23.642;2024-03-02T05:59:07;31.25;;;13.95;;
56752;SDS011;42627;42.646;23.642;2024-03-02T06:01:12;32.63;;;13.98;;
56752;SDS011;42627;42.646;23.642;2024-03-02T06:03:13;35.70;;;14.27;;
56752;SDS011;42627;42.646;23.642;2024-03-02T06:05:15;34.67;;;14.48;;
56752;SDS011;42627;42.646;23.642;2024-03-02T06:07:17;34.03;;;12.80;;
56752;SDS011;42627;42.646;23.642;2024-03-02T06:09:19;31.20;;;13.07;;
56752;SDS011;42627;42.646;23.642;2024-03-02T06:11:20;34.05;;;12.52;;
56752;SDS011;42627;42.646;23.642;2024-03-02T06:13:21;42.10;;;13.70;;
56752;SDS011;42627;42.646;23.642;2024-03-02T06:15:22;29.77;;;12.52;;
56752;SDS011;42627;42.646;23.642;2024-03-02T06:17:23;35.47;;;13.73;;
56752;SDS011;42627;42.646;23.642;2024-03-02T06:19:24;32.70;;;14.38;;
56752;SDS011;42627;42.646;23.642;2024-03-02T06:21:25;36.70;;;13.75;;
56752;SDS011;42627;42.646;23.642;2024-03-02T06:23:27;39.33;;;15.05;;
56752;SDS011;42627;42.646;23.642;2024-03-02T06:25:28;40.63;;;15.27;;
56752;SDS011;42627;42.646;23.642;2024-03-02T06:27:29;41.53;;;16.17;;
56752;SDS011;42627;42.646;23.642;2024-03-02T06:32:04;39.35;;;14.57;;
56752;SDS011;42627;42.646;23.642;2024-03-02T06:34:14;41.63;;;16.85;;
56752;SDS011;42627;42.646;23.642;2024-03-02T06:36:15;47.45;;;17.23;;
56752;SDS011;42627;42.646;23.642;2024-03-02T06:38:17;43.97;;;16.48;;
56752;SDS011;42627;42.646;23.642;2024-03-02T06:40:18;46.35;;;17.77;;
56752;SDS011;42627;42.646;23.642;2024-03-02T06:42:19;46.85;;;17.33;;
56752;SDS011;42627;42.646;23.642;2024-03-02T06:44:20;36.40;;;14.88;;
56752;SDS011;42627;42.646;23.642;2024-03-02T06:46:21;37.92;;;15.07;;
56752;SDS011;42627;42.646;23.642;2024-03-02T06:48:22;28.83;;;13.20;;
56752;SDS011;42627;42.646;23.642;2024-03-02T06:50:33;37.85;;;14.25;;
56752;SDS011;42627;42.646;23.642;2024-03-02T06:52:35;35.70;;;12.70;;
56752;SDS011;42627;42.646;23.642;2024-03-02T06:54:36;30.02;;;12.13;;
56752;SDS011;42627;42.646;23.642;2024-03-02T06:56:37;27.50;;;11.63;;
56752;SDS011;42627;42.646;23.642;2024-03-02T06:58:39;27.75;;;11.68;;
56752;SDS011;42627;42.646;23.642;2024-03-02T07:00:45;31.77;;;12.80;;
56752;SDS011;42627;42.646;23.642;2024-03-02T07:03:12;32.00;;;12.38;;
56752;SDS011;42627;42.646;23.642;2024-03-02T07:05:20;24.42;;;9.85;;
56752;SDS011;42627;42.646;23.642;2024-03-02T07:07:21;28.58;;;11.45;;
56752;SDS011;42627;42.646;23.642;2024-03-02T07:09:22;31.60;;;12.70;;
56752;SDS011;42627;42.646;23.642;2024-03-02T07:11:23;28.13;;;11.57;;
56752;SDS011;42627;42.646;23.642;2024-03-02T07:13:24;29.70;;;11.70;;
56752;SDS011;42627;42.646;23.642;2024-03-02T07:15:25;30.33;;;12.05;;
56752;SDS011;42627;42.646;23.642;2024-03-02T07:17:45;31.33;;;10.60;;
56752;SDS011;42627;42.646;23.642;2024-03-02T07:19:55;27.45;;;10.85;;
56752;SDS011;42627;42.646;23.642;2024-03-02T07:21:56;30.40;;;11.80;;
56752;SDS011;42627;42.646;23.642;2024-03-02T07:23:57;28.92;;;10.98;;
56752;SDS011;42627;42.646;23.642;2024-03-02T07:25:59;21.92;;;9.88;;
56752;SDS011;42627;42.646;23.642;2024-03-02T07:28:01;26.00;;;10.95;;
56752;SDS011;42627;42.646;23.642;2024-03-02T07:30:16;29.10;;;12.25;;
56752;SDS011;42627;42.646;23.642;2024-03-02T07:32:26;30.05;;;13.00;;
56752;SDS011;42627;42.646;23.642;2024-03-02T07:34:36;31.45;;;12.15;;
56752;SDS011;42627;42.646;23.642;2024-03-02T07:36:37;36.63;;;13.13;;
56752;SDS011;42627;42.646;23.642;2024-03-02T07:38:39;34.38;;;13.55;;
56752;SDS011;42627;42.646;23.642;2024-03-02T07:40:40;28.15;;;12.98;;
56752;SDS011;42627;42.646;23.642;2024-03-02T07:42:41;37.08;;;14.02;;
56752;SDS011;42627;42.646;23.642;2024-03-02T07:44:45;32.70;;;13.02;;
56752;SDS011;42627;42.646;23.642;2024-03-02T07:46:46;27.00;;;12.02;;
56752;SDS011;42627;42.646;23.642;2024-03-02T07:48:57;28.83;;;12.02;;
56752;SDS011;42627;42.646;23.642;2024-03-02T07:50:58;32.38;;;13.43;;
56752;SDS011;42627;42.646;23.642;2024-03-02T07:52:59;27.92;;;12.85;;
56752;SDS011;42627;42.646;23.642;2024-03-02T07:55:00;29.85;;;12.20;;
56752;SDS011;42627;42.646;23.642;2024-03-02T07:57:01;32.15;;;13.73;;
56752;SDS011;42627;42.646;23.642;2024-03-02T07:59:07;30.60;;;12.38;;
56752;SDS011;42627;42.646;23.642;2024-03-02T08:01:17;29.50;;;13.95;;
56752;SDS011;42627;42.646;23.642;2024-03-02T08:03:28;30.77;;;13.43;;
56752;SDS011;42627;42.646;23.642;2024-03-02T08:05:29;27.63;;;12.38;;
56752;SDS011;42627;42.646;23.642;2024-03-02T08:07:30;26.95;;;10.38;;
56752;SDS011;42627;42.646;23.642;2024-03-02T08:09:31;23.30;;;9.43;;
56752;SDS011;42627;42.646;23.642;2024-03-02T08:11:32;38.63;;;12.50;;
56752;SDS011;42627;42.646;23.642;2024-03-02T08:13:33;27.45;;;11.45;;
56752;SDS011;42627;42.646;23.642;2024-03-02T08:15:34;26.88;;;9.20;;
56752;SDS011;42627;42.646;23.642;2024-03-02T08:17:35;23.27;;;9.45;;
56752;SDS011;42627;42.646;23.642;2024-03-02T13:15:55;10.23;;;4.45;;
56752;SDS011;42627;42.646;23.642;2024-03-02T13:18:06;8.93;;;3.67;;
56752;SDS011;42627;42.646;23.642;2024-03-02T13:20:09;8.98;;;3.75;;
56752;SDS011;42627;42.646;23.642;2024-03-02T13:22:10;7.03;;;3.55;;
56752;SDS011;42627;42.646;23.642;2024-03-02T13:24:11;8.68;;;4.00;;
56752;SDS011;42627;42.646;23.642;2024-03-02T13:26:12;7.68;;;3.45;;
56752;SDS011;42627;42.646;23.642;2024-03-02T13:28:13;7.82;;;3.65;;
56752;SDS011;42627;42.646;23.642;2024-03-02T13:30:15;8.50;;;3.60;;
56752;SDS011;42627;42.646;23.642;2024-03-02T13:32:16;8.43;;;4.13;;
56752;SDS011;42627;42.646;23.642;2024-03-02T13:34:29;6.55;;;3.22;;
56752;SDS011;42627;42.646;23.642;2024-03-02T13:36:30;7.47;;;3.33;;
56752;SDS011;42627;42.646;23.642;2024-03-02T13:38:31;7.15;;;3.75;;
56752;SDS011;42627;42.646;23.642;2024-03-02T13:40:32;7.55;;;3.67;;
56752;SDS011;42627;42.646;23.642;2024-03-02T13:42:35;6.32;;;3.13;;
56752;SDS011;42627;42.646;23.642;2024-03-02T13:44:45;8.55;;;4.18;;
56752;SDS011;42627;42.646;23.642;2024-03-02T13:46:57;5.75;;;2.88;;
56752;SDS011;42627;42.646;23.642;2024-03-02T13:49:07;6.97;;;3.65;;
56752;SDS011;42627;42.646;23.642;2024-03-02T13:51:08;6.13;;;3.45;;
56752;SDS011;42627;42.646;23.642;2024-03-02T13:53:09;8.25;;;3.67;;
56752;SDS011;42627;42.646;23.642;2024-03-02T13:55:10;8.98;;;3.55;;
56752;SDS011;42627;42.646;23.642;2024-03-02T13:57:11;9.50;;;4.05;;
56752;SDS011;42627;42.646;23.642;2024-03-02T13:59:13;5.90;;;3.05;;
56752;SDS011;42627;42.646;23.642;2024-03-02T14:01:14;7.68;;;4.15;;
56752;SDS011;42627;42.646;23.642;2024-03-02T14:03:24;6.47;;;3.95;;
56752;SDS011;42627;42.646;23.642;2024-03-02T14:05:27;6.97;;;3.30;;
56752;SDS011;42627;42.646;23.642;2024-03-02T14:07:28;8.25;;;3.92;;
56752;SDS011;42627;42.646;23.642;2024-03-02T14:09:29;9.48;;;3.83;;
56752;SDS011;42627;42.646;23.642;2024-03-02T14:11:30;8.68;;;3.92;;
56752;SDS011;42627;42.646;23.642;2024-03-02T14:13:41;9.73;;;4.40;;
56752;SDS011;42627;42.646;23.642;2024-03-02T14:15:50;7.25;;;3.90;;
56752;SDS011;42627;42.646;23.642;2024-03-02T14:18:03;7.63;;;3.80;;
56752;SDS011;42627;42.646;23.642;2024-03-02T14:20:04;6.88;;;3.58;;
56752;SDS011;42627;42.646;23.642;2024-03-02T14:22:06;6.57;;;3.90;;
56752;SDS011;42627;42.646;23.642;2024-03-02T14:24:07;7.47;;;3.40;;
56752;SDS011;42627;42.646;23.642;2024-03-02T14:26:09;7.80;;;3.83;;
56752;SDS011;42627;42.646;23.642;2024-03-02T14:28:10;7.95;;;4.47;;
56752;SDS011;42627;42.646;23.642;2024-03-02T14:30:12;9.57;;;5.00;;
56752;SDS011;42627;42.646;23.642;2024-03-02T14:32:25;10.25;;;4.18;;
56752;SDS011;42627;42.646;23.642;2024-03-02T14:34:26;8.98;;;4.18;;
56752;SDS011;42627;42.646;23.642;2024-03-02T14:36:27;8.07;;;4.40;;
56752;SDS011;42627;42.646;23.642;2024-03-02T14:38:28;7.97;;;3.95;;
56752;SDS011;42627;42.646;23.642;2024-03-02T14:40:29;10.35;;;4.65;;
56752;SDS011;42627;42.646;23.642;2024-03-02T14:42:31;7.63;;;3.45;;
56752;SDS011;42627;42.646;23.642;2024-03-02T14:44:32;6.95;;;4.15;;
56752;SDS011;42627;42.646;23.642;2024-03-02T14:46:34;9.77;;;4.47;;
56752;SDS011;42627;42.646;23.642;2024-03-02T14:48:44;9.45;;;4.38;;
56752;SDS011;42627;42.646;23.642;2024-03-02T14:50:46;8.32;;;4.40;;
56752;SDS011;42627;42.646;23.642;2024-03-02T14:52:47;12.73;;;6.22;;
56752;SDS011;42627;42.646;23.642;2024-03-02T14:54:48;13.55;;;7.28;;
56752;SDS011;42627;42.646;23.642;2024-03-02T14:56:49;13.60;;;7.47;;
56752;SDS011;42627;42.646;23.642;2024-03-02T14:58:51;10.82;;;5.32;;
56752;SDS011;42627;42.646;23.642;2024-03-02T15:00:53;13.55;;;6.50;;
56752;SDS011;42627;42.646;23.642;2024-03-02T15:03:04;15.73;;;6.95;;
56752;SDS011;42627;42.646;23.642;2024-03-02T15:05:16;16.25;;;6.57;;
56752;SDS011;42627;42.646;23.642;2024-03-02T15:07:26;14.75;;;7.30;;
56752;SDS011;42627;42.646;23.642;2024-03-02T15:09:27;14.73;;;6.85;;
56752;SDS011;42627;42.646;23.642;2024-03-02T15:11:28;10.77;;;5.32;;
56752;SDS011;42627;42.646;23.642;2024-03-02T15:13:30;12.57;;;5.15;;
56752;SDS011;42627;42.646;23.642;2024-03-02T15:15:31;11.52;;;5.85;;
56752;SDS011;42627;42.646;23.642;2024-03-02T15:17:32;16.42;;;7.47;;
56752;SDS011;42627;42.646;23.642;2024-03-02T15:19:33;15.55;;;6.07;;
56752;SDS011;42627;42.646;23.642;2024-03-02T15:21:46;11.80;;;6.13;;
56752;SDS011;42627;42.646;23.642;2024-03-02T15:23:48;12.73;;;5.95;;
56752;SDS011;42627;42.646;23.642;2024-03-02T15:25:49;13.98;;;6.85;;
56752;SDS011;42627;42.646;23.642;2024-03-02T15:27:50;14.07;;;7.20;;
56752;SDS011;42627;42.646;23.642;2024-03-02T15:29:51;12.32;;;7.25;;
56752;SDS011;42627;42.646;23.642;2024-03-02T15:32:02;17.13;;;7.25;;
56752;SDS011;42627;42.646;23.642;2024-03-02T15:36:53;14.63;;;6.88;;
56752;SDS011;42627;42.646;23.642;2024-03-02T15:38:55;13.73;;;6.13;;
56752;SDS011;42627;42.646;23.642;2024-03-02T15:40:57;13.75;;;6.53;;
56752;SDS011;42627;42.646;23.642;2024-03-02T15:42:57;12.05;;;5.28;;
56752;SDS011;42627;42.646;23.642;2024-03-02T15:44:59;14.20;;;6.53;;
56752;SDS011;42627;42.646;23.642;2024-03-02T15:47:00;12.07;;;6.55;;
56752;SDS011;42627;42.646;23.642;2024-03-02T15:49:01;12.60;;;5.72;;
56752;SDS011;42627;42.646;23.642;2024-03-02T15:51:02;13.27;;;7.28;;
56752;SDS011;42627;42.646;23.642;2024-03-02T15:53:04;12.82;;;5.97;;
56752;SDS011;42627;42.646;23.642;2024-03-02T15:55:06;13.77;;;6.55;;
56752;SDS011;42627;42.646;23.642;2024-03-02T15:57:07;17.75;;;9.93;;
56752;SDS011;42627;42.646;23.642;2024-03-02T15:59:08;17.23;;;9.52;;
56752;SDS011;42627;42.646;23.642;2024-03-02T16:01:09;19.98;;;10.20;;
56752;SDS011;42627;42.646;23.642;2024-03-02T16:03:10;24.70;;;12.95;;
56752;SDS011;42627;42.646;23.642;2024-03-02T16:05:11;24.50;;;10.93;;
56752;SDS011;42627;42.646;23.642;2024-03-02T16:07:13;20.15;;;11.43;;
56752;SDS011;42627;42.646;23.642;2024-03-02T16:09:14;21.73;;;9.95;;
56752;SDS011;42627;42.646;23.642;2024-03-02T16:11:15;21.13;;;11.57;;
56752;SDS011;42627;42.646;23.642;2024-03-02T16:13:16;20.33;;;9.23;;
56752;SDS011;42627;42.646;23.642;2024-03-02T16:15:17;21.20;;;10.13;;
56752;SDS011;42627;42.646;23.642;2024-03-02T16:17:18;18.80;;;9.70;;
56752;SDS011;42627;42.646;23.642;2024-03-02T16:19:19;19.38;;;10.15;;
56752;SDS011;42627;42.646;23.642;2024-03-02T17:20:14;12.82;;;6.47;;
56752;SDS011;42627;42.646;23.642;2024-03-02T17:22:15;13.20;;;6.53;;
56752;SDS011;42627;42.646;23.642;2024-03-02T17:24:16;13.50;;;6.68;;
56752;SDS011;42627;42.646;23.642;2024-03-02T17:26:17;11.70;;;5.95;;
56752;SDS011;42627;42.646;23.642;2024-03-02T17:28:19;11.88;;;5.32;;
56752;SDS011;42627;42.646;23.642;2024-03-02T17:30:20;6.75;;;4.03;;
56752;SDS011;42627;42.646;23.642;2024-03-02T17:32:26;10.25;;;3.80;;
56752;SDS011;42627;42.646;23.642;2024-03-02T17:34:28;5.53;;;3.28;;
56752;SDS011;42627;42.646;23.642;2024-03-02T17:36:29;5.60;;;3.05;;
56752;SDS011;42627;42.646;23.642;2024-03-02T17:38:30;6.72;;;3.70;;
56752;SDS011;42627;42.646;23.642;2024-03-02T17:40:31;12.15;;;5.28;;
56752;SDS011;42627;42.646;23.642;2024-03-02T17:42:41;9.02;;;5.03;;
56752;SDS011;42627;42.646;23.642;2024-03-02T17:44:51;6.60;;;3.33;;
56752;SDS011;42627;42.646;23.642;2024-03-02T17:47:01;6.57;;;3.60;;
56752;SDS011;42627;42.646;23.642;2024-03-02T17:49:02;6.38;;;3.13;;
56752;SDS011;42627;42.646;23.642;2024-03-02T17:51:06;5.85;;;3.03;;
56752;SDS011;42627;42.646;23.642;2024-03-02T17:53:08;6.75;;;3.00;;
56752;SDS011;42627;42.646;23.642;2024-03-02T17:55:09;7.65;;;2.88;;
56752;SDS011;42627;42.646;23.642;2024-03-02T17:57:10;6.30;;;4.05;;
56752;SDS011;42627;42.646;23.642;2024-03-02T17:59:11;16.67;;;8.13;;
56752;SDS011;42627;42.646;23.642;2024-03-02T18:01:22;13.02;;;7.47;;
56752;SDS011;42627;42.646;23.642;2024-03-02T18:03:23;10.65;;;6.50;;
56752;SDS011;42627;42.646;23.642;2024-03-02T18:05:24;12.02;;;7.18;;
56752;SDS011;42627;42.646;23.642;2024-03-02T18:07:25;9.57;;;6.90;;
56752;SDS011;42627;42.646;23.642;2024-03-02T18:09:26;9.65;;;5.70;;
56752;SDS011;42627;42.646;23.642;2024-03-02T18:11:36;10.45;;;6.43;;
56752;SDS011;42627;42.646;23.642;2024-03-02T18:13:46;9.60;;;5.65;;
56752;SDS011;42627;42.646;23.642;2024-03-02T18:16:02;13.70;;;6.88;;
56752;SDS011;42627;42.646;23.642;2024-03-02T18:20:05;17.88;;;7.72;;
56752;SDS011;42627;42.646;23.642;2024-03-02T18:22:06;17.15;;;9.35;;